sensor_id;sensor_type;location;lat;lon;timestamp;temperature;humidity
27188;DHT22;14708;50.872;5.306;2024-03-08T00:00:15;21.30;52.10
27188;DHT22;14708;50.872;5.306;2024-03-08T00:02:44;21.30;52.00
27188;DHT22;14708;50.872;5.306;2024-03-08T00:05:11;21.30;52.00
27188;DHT22;14708;50.872;5.306;2024-03-08T00:07:37;21.30;51.90
27188;DHT22;14708;50.872;5.306;2024-03-08T00:10:04;21.20;51.80
27188;DHT22;14708;50.872;5.306;2024-03-08T00:12:31;21.20;51.90
27188;DHT22;14708;50.872;5.306;2024-03-08T00:14:57;21.20;51.70
27188;DHT22;14708;50.872;5.306;2024-03-08T00:17:23;21.20;51.70
27188;DHT22;14708;50.872;5.306;2024-03-08T00:19:49;21.20;51.70
27188;DHT22;14708;50.872;5.306;2024-03-08T00:22:17;21.20;51.70
27188;DHT22;14708;50.872;5.306;2024-03-08T00:24:43;21.20;51.60
27188;DHT22;14708;50.872;5.306;2024-03-08T00:27:09;21.20;51.70
27188;DHT22;14708;50.872;5.306;2024-03-08T00:32:14;21.20;51.60
27188;DHT22;14708;50.872;5.306;2024-03-08T00:34:40;21.20;51.50
27188;DHT22;14708;50.872;5.306;2024-03-08T00:37:06;21.10;51.40
27188;DHT22;14708;50.872;5.306;2024-03-08T00:39:32;21.10;51.50
27188;DHT22;14708;50.872;5.306;2024-03-08T00:41:58;21.10;51.40
27188;DHT22;14708;50.872;5.306;2024-03-08T00:44:24;21.10;51.40
27188;DHT22;14708;50.872;5.306;2024-03-08T00:46:51;21.10;51.50
27188;DHT22;14708;50.872;5.306;2024-03-08T00:49:17;21.10;51.30
27188;DHT22;14708;50.872;5.306;2024-03-08T00:51:43;21.10;51.30
27188;DHT22;14708;50.872;5.306;2024-03-08T00:54:09;21.10;51.20
27188;DHT22;14708;50.872;5.306;2024-03-08T00:56:37;21.00;51.30
27188;DHT22;14708;50.872;5.306;2024-03-08T00:59:04;21.00;51.20
27188;DHT22;14708;50.872;5.306;2024-03-08T01:01:31;21.00;51.30
27188;DHT22;14708;50.872;5.306;2024-03-08T01:03:57;21.00;51.40
27188;DHT22;14708;50.872;5.306;2024-03-08T01:06:24;21.00;51.30
27188;DHT22;14708;50.872;5.306;2024-03-08T01:08:49;21.00;51.30
27188;DHT22;14708;50.872;5.306;2024-03-08T01:11:17;21.00;51.30
27188;DHT22;14708;50.872;5.306;2024-03-08T01:13:43;20.90;51.10
27188;DHT22;14708;50.872;5.306;2024-03-08T01:16:09;21.00;51.30
27188;DHT22;14708;50.872;5.306;2024-03-08T01:18:35;21.00;51.20
27188;DHT22;14708;50.872;5.306;2024-03-08T01:21:01;20.90;51.10
27188;DHT22;14708;50.872;5.306;2024-03-08T01:23:27;21.00;51.10
27188;DHT22;14708;50.872;5.306;2024-03-08T01:25:54;21.00;51.10
27188;DHT22;14708;50.872;5.306;2024-03-08T01:28:26;21.00;51.10
27188;DHT22;14708;50.872;5.306;2024-03-08T01:30:52;20.90;50.90
27188;DHT22;14708;50.872;5.306;2024-03-08T01:33:25;20.90;51.10
27188;DHT22;14708;50.872;5.306;2024-03-08T01:35:52;20.90;51.00
27188;DHT22;14708;50.872;5.306;2024-03-08T01:38:19;20.90;51.00
27188;DHT22;14708;50.872;5.306;2024-03-08T01:40:46;20.90;51.00
27188;DHT22;14708;50.872;5.306;2024-03-08T01:43:28;20.90;51.00
27188;DHT22;14708;50.872;5.306;2024-03-08T01:45:56;20.90;51.10
27188;DHT22;14708;50.872;5.306;2024-03-08T01:48:22;20.90;51.00
27188;DHT22;14708;50.872;5.306;2024-03-08T01:50:50;20.90;51.10
27188;DHT22;14708;50.872;5.306;2024-03-08T01:53:18;20.80;50.90
27188;DHT22;14708;50.872;5.306;2024-03-08T01:55:48;20.80;51.00
27188;DHT22;14708;50.872;5.306;2024-03-08T01:58:15;20.80;51.00
27188;DHT22;14708;50.872;5.306;2024-03-08T02:00:44;20.80;51.00
27188;DHT22;14708;50.872;5.306;2024-03-08T02:03:12;20.80;51.10
27188;DHT22;14708;50.872;5.306;2024-03-08T02:05:40;20.80;50.90
27188;DHT22;14708;50.872;5.306;2024-03-08T02:08:06;20.80;50.90
27188;DHT22;14708;50.872;5.306;2024-03-08T02:10:33;20.80;51.00
27188;DHT22;14708;50.872;5.306;2024-03-08T02:13:02;20.80;50.80
27188;DHT22;14708;50.872;5.306;2024-03-08T02:18:19;20.80;50.90
27188;DHT22;14708;50.872;5.306;2024-03-08T02:23:21;20.70;50.70
27188;DHT22;14708;50.872;5.306;2024-03-08T02:25:48;20.70;50.80
27188;DHT22;14708;50.872;5.306;2024-03-08T02:28:14;20.70;50.60
27188;DHT22;14708;50.872;5.306;2024-03-08T02:30:40;20.70;50.90
27188;DHT22;14708;50.872;5.306;2024-03-08T02:33:07;20.70;50.60
27188;DHT22;14708;50.872;5.306;2024-03-08T02:35:35;20.70;50.60
27188;DHT22;14708;50.872;5.306;2024-03-08T02:38:01;20.70;50.70
27188;DHT22;14708;50.872;5.306;2024-03-08T02:40:29;20.70;50.60
27188;DHT22;14708;50.872;5.306;2024-03-08T02:42:54;20.70;50.50
27188;DHT22;14708;50.872;5.306;2024-03-08T02:45:20;20.70;50.60
27188;DHT22;14708;50.872;5.306;2024-03-08T02:47:47;20.70;50.60
27188;DHT22;14708;50.872;5.306;2024-03-08T02:50:15;20.60;50.50
27188;DHT22;14708;50.872;5.306;2024-03-08T02:52:44;20.60;50.50
27188;DHT22;14708;50.872;5.306;2024-03-08T02:55:13;20.60;50.50
27188;DHT22;14708;50.872;5.306;2024-03-08T02:57:42;20.60;50.50
27188;DHT22;14708;50.872;5.306;2024-03-08T03:00:13;20.60;50.40
27188;DHT22;14708;50.872;5.306;2024-03-08T03:02:39;20.60;50.50
27188;DHT22;14708;50.872;5.306;2024-03-08T03:05:05;20.60;50.40
27188;DHT22;14708;50.872;5.306;2024-03-08T03:07:35;20.60;50.40
27188;DHT22;14708;50.872;5.306;2024-03-08T03:10:01;20.60;50.50
27188;DHT22;14708;50.872;5.306;2024-03-08T03:12:29;20.60;50.50
27188;DHT22;14708;50.872;5.306;2024-03-08T03:14:56;20.60;50.50
27188;DHT22;14708;50.872;5.306;2024-03-08T03:17:24;20.60;50.50
27188;DHT22;14708;50.872;5.306;2024-03-08T03:19:51;20.50;50.30
27188;DHT22;14708;50.872;5.306;2024-03-08T03:22:21;20.50;50.50
27188;DHT22;14708;50.872;5.306;2024-03-08T03:24:46;20.50;50.30
27188;DHT22;14708;50.872;5.306;2024-03-08T03:27:13;20.50;50.20
27188;DHT22;14708;50.872;5.306;2024-03-08T03:29:41;20.50;50.50
27188;DHT22;14708;50.872;5.306;2024-03-08T03:32:15;20.50;50.30
27188;DHT22;14708;50.872;5.306;2024-03-08T03:34:41;20.50;50.30
27188;DHT22;14708;50.872;5.306;2024-03-08T03:37:09;20.50;50.30
27188;DHT22;14708;50.872;5.306;2024-03-08T03:39:38;20.50;50.30
27188;DHT22;14708;50.872;5.306;2024-03-08T03:42:18;20.50;50.30
27188;DHT22;14708;50.872;5.306;2024-03-08T03:44:48;20.50;50.20
27188;DHT22;14708;50.872;5.306;2024-03-08T03:47:14;20.40;50.10
27188;DHT22;14708;50.872;5.306;2024-03-08T03:49:41;20.40;50.10
27188;DHT22;14708;50.872;5.306;2024-03-08T03:52:08;20.40;50.30
27188;DHT22;14708;50.872;5.306;2024-03-08T03:54:34;20.40;50.00
27188;DHT22;14708;50.872;5.306;2024-03-08T03:57:01;20.40;50.10
27188;DHT22;14708;50.872;5.306;2024-03-08T03:59:28;20.40;50.10
27188;DHT22;14708;50.872;5.306;2024-03-08T04:01:55;20.40;50.20
27188;DHT22;14708;50.872;5.306;2024-03-08T04:04:22;20.40;50.10
27188;DHT22;14708;50.872;5.306;2024-03-08T04:06:50;20.40;50.20
27188;DHT22;14708;50.872;5.306;2024-03-08T04:09:16;20.40;50.00
27188;DHT22;14708;50.872;5.306;2024-03-08T04:11:45;20.40;50.10
27188;DHT22;14708;50.872;5.306;2024-03-08T04:14:10;20.40;50.10
27188;DHT22;14708;50.872;5.306;2024-03-08T04:16:37;20.40;50.10
27188;DHT22;14708;50.872;5.306;2024-03-08T04:19:03;20.30;50.20
27188;DHT22;14708;50.872;5.306;2024-03-08T04:21:32;20.30;50.10
27188;DHT22;14708;50.872;5.306;2024-03-08T04:23:58;20.30;50.10
27188;DHT22;14708;50.872;5.306;2024-03-08T04:26:24;20.30;50.10
27188;DHT22;14708;50.872;5.306;2024-03-08T04:28:51;20.30;50.20
27188;DHT22;14708;50.872;5.306;2024-03-08T04:31:17;20.30;50.10
27188;DHT22;14708;50.872;5.306;2024-03-08T04:33:42;20.30;50.10
27188;DHT22;14708;50.872;5.306;2024-03-08T04:36:11;20.30;50.20
27188;DHT22;14708;50.872;5.306;2024-03-08T04:38:39;20.20;50.00
27188;DHT22;14708;50.872;5.306;2024-03-08T04:41:06;20.30;50.20
27188;DHT22;14708;50.872;5.306;2024-03-08T04:43:33;20.30;50.30
27188;DHT22;14708;50.872;5.306;2024-03-08T04:45:59;20.20;50.00
27188;DHT22;14708;50.872;5.306;2024-03-08T04:48:24;20.20;50.00
27188;DHT22;14708;50.872;5.306;2024-03-08T04:50:57;20.20;50.10
27188;DHT22;14708;50.872;5.306;2024-03-08T04:53:22;20.20;50.10
27188;DHT22;14708;50.872;5.306;2024-03-08T04:55:48;20.20;50.10
27188;DHT22;14708;50.872;5.306;2024-03-08T04:58:14;20.20;50.10
27188;DHT22;14708;50.872;5.306;2024-03-08T05:00:40;20.20;50.00
27188;DHT22;14708;50.872;5.306;2024-03-08T05:03:07;20.20;50.00
27188;DHT22;14708;50.872;5.306;2024-03-08T05:05:36;20.20;50.10
27188;DHT22;14708;50.872;5.306;2024-03-08T05:08:03;20.20;49.90
27188;DHT22;14708;50.872;5.306;2024-03-08T05:10:30;20.20;50.00
27188;DHT22;14708;50.872;5.306;2024-03-08T05:12:58;20.20;50.10
27188;DHT22;14708;50.872;5.306;2024-03-08T05:15:24;20.20;50.00
27188;DHT22;14708;50.872;5.306;2024-03-08T05:17:52;20.10;50.10
27188;DHT22;14708;50.872;5.306;2024-03-08T05:20:18;20.20;50.70
27188;DHT22;14708;50.872;5.306;2024-03-08T05:22:46;20.20;49.90
27188;DHT22;14708;50.872;5.306;2024-03-08T05:25:13;20.10;50.00
27188;DHT22;14708;50.872;5.306;2024-03-08T05:27:40;20.10;50.00
27188;DHT22;14708;50.872;5.306;2024-03-08T05:30:06;20.10;49.80
27188;DHT22;14708;50.872;5.306;2024-03-08T05:32:34;20.10;50.10
27188;DHT22;14708;50.872;5.306;2024-03-08T05:35:04;20.10;50.00
27188;DHT22;14708;50.872;5.306;2024-03-08T05:37:32;20.10;50.00
27188;DHT22;14708;50.872;5.306;2024-03-08T05:40:00;20.10;49.70
27188;DHT22;14708;50.872;5.306;2024-03-08T05:42:26;20.10;50.50
27188;DHT22;14708;50.872;5.306;2024-03-08T05:44:53;20.10;49.90
27188;DHT22;14708;50.872;5.306;2024-03-08T05:47:24;20.10;50.00
27188;DHT22;14708;50.872;5.306;2024-03-08T05:49:52;20.00;49.80
27188;DHT22;14708;50.872;5.306;2024-03-08T05:52:21;20.00;49.80
27188;DHT22;14708;50.872;5.306;2024-03-08T05:54:46;20.00;49.70
27188;DHT22;14708;50.872;5.306;2024-03-08T05:57:12;20.00;49.80
27188;DHT22;14708;50.872;5.306;2024-03-08T05:59:39;20.00;49.70
27188;DHT22;14708;50.872;5.306;2024-03-08T06:02:05;20.00;49.80
27188;DHT22;14708;50.872;5.306;2024-03-08T06:04:31;20.00;50.50
27188;DHT22;14708;50.872;5.306;2024-03-08T06:06:57;20.00;49.70
27188;DHT22;14708;50.872;5.306;2024-03-08T06:09:24;20.00;49.70
27188;DHT22;14708;50.872;5.306;2024-03-08T06:11:53;20.00;49.60
27188;DHT22;14708;50.872;5.306;2024-03-08T06:14:21;20.10;49.50
27188;DHT22;14708;50.872;5.306;2024-03-08T06:16:53;20.10;49.50
27188;DHT22;14708;50.872;5.306;2024-03-08T06:19:20;20.10;48.80
27188;DHT22;14708;50.872;5.306;2024-03-08T06:21:45;20.10;49.60
27188;DHT22;14708;50.872;5.306;2024-03-08T06:24:12;20.10;49.50
27188;DHT22;14708;50.872;5.306;2024-03-08T06:26:40;20.10;49.30
27188;DHT22;14708;50.872;5.306;2024-03-08T06:29:09;20.20;49.70
27188;DHT22;14708;50.872;5.306;2024-03-08T06:31:35;20.20;49.50
27188;DHT22;14708;50.872;5.306;2024-03-08T06:34:04;20.30;49.20
27188;DHT22;14708;50.872;5.306;2024-03-08T06:36:34;20.40;49.20
27188;DHT22;14708;50.872;5.306;2024-03-08T06:39:03;20.60;49.50
27188;DHT22;14708;50.872;5.306;2024-03-08T06:41:35;20.70;49.70
27188;DHT22;14708;50.872;5.306;2024-03-08T06:44:01;20.80;49.30
27188;DHT22;14708;50.872;5.306;2024-03-08T06:46:27;20.80;49.10
27188;DHT22;14708;50.872;5.306;2024-03-08T06:48:53;20.90;48.90
27188;DHT22;14708;50.872;5.306;2024-03-08T06:51:20;21.00;48.70
27188;DHT22;14708;50.872;5.306;2024-03-08T06:53:50;20.90;48.60
27188;DHT22;14708;50.872;5.306;2024-03-08T06:56:20;20.90;48.50
27188;DHT22;14708;50.872;5.306;2024-03-08T06:58:48;20.90;48.30
27188;DHT22;14708;50.872;5.306;2024-03-08T07:01:14;20.90;48.40
27188;DHT22;14708;50.872;5.306;2024-03-08T07:03:44;20.80;48.40
27188;DHT22;14708;50.872;5.306;2024-03-08T07:06:11;20.80;48.40
27188;DHT22;14708;50.872;5.306;2024-03-08T07:08:37;20.80;48.10
27188;DHT22;14708;50.872;5.306;2024-03-08T07:11:03;20.80;48.20
27188;DHT22;14708;50.872;5.306;2024-03-08T07:13:30;20.80;48.30
27188;DHT22;14708;50.872;5.306;2024-03-08T07:15:56;20.80;48.50
27188;DHT22;14708;50.872;5.306;2024-03-08T07:18:21;20.80;48.00
27188;DHT22;14708;50.872;5.306;2024-03-08T07:20:48;20.80;47.80
27188;DHT22;14708;50.872;5.306;2024-03-08T07:23:16;20.80;48.10
27188;DHT22;14708;50.872;5.306;2024-03-08T07:26:04;20.80;47.70
27188;DHT22;14708;50.872;5.306;2024-03-08T07:28:32;20.80;47.80
27188;DHT22;14708;50.872;5.306;2024-03-08T07:30:59;21.00;47.80
27188;DHT22;14708;50.872;5.306;2024-03-08T07:33:42;21.10;48.10
27188;DHT22;14708;50.872;5.306;2024-03-08T07:36:08;21.30;47.90
27188;DHT22;14708;50.872;5.306;2024-03-08T07:38:36;21.60;47.60
27188;DHT22;14708;50.872;5.306;2024-03-08T07:41:04;21.90;47.00
27188;DHT22;14708;50.872;5.306;2024-03-08T07:43:31;22.10;46.90
27188;DHT22;14708;50.872;5.306;2024-03-08T07:45:59;22.30;46.10
27188;DHT22;14708;50.872;5.306;2024-03-08T07:48:24;22.40;46.10
27188;DHT22;14708;50.872;5.306;2024-03-08T07:50:51;22.50;45.30
27188;DHT22;14708;50.872;5.306;2024-03-08T07:53:17;22.40;45.60
27188;DHT22;14708;50.872;5.306;2024-03-08T07:55:43;22.40;45.50
27188;DHT22;14708;50.872;5.306;2024-03-08T07:58:11;22.40;45.80
27188;DHT22;14708;50.872;5.306;2024-03-08T08:00:39;22.40;45.70
27188;DHT22;14708;50.872;5.306;2024-03-08T08:03:05;22.40;45.90
27188;DHT22;14708;50.872;5.306;2024-03-08T08:05:31;22.50;45.70
27188;DHT22;14708;50.872;5.306;2024-03-08T08:08:01;22.50;45.90
27188;DHT22;14708;50.872;5.306;2024-03-08T08:10:36;22.60;45.80
27188;DHT22;14708;50.872;5.306;2024-03-08T08:13:02;22.70;45.30
27188;DHT22;14708;50.872;5.306;2024-03-08T08:15:31;22.70;45.30
27188;DHT22;14708;50.872;5.306;2024-03-08T08:18:00;22.60;45.60
27188;DHT22;14708;50.872;5.306;2024-03-08T08:20:28;22.70;45.50
27188;DHT22;14708;50.872;5.306;2024-03-08T08:22:54;22.70;45.10
27188;DHT22;14708;50.872;5.306;2024-03-08T08:25:20;22.60;44.90
27188;DHT22;14708;50.872;5.306;2024-03-08T08:27:49;22.70;45.30
27188;DHT22;14708;50.872;5.306;2024-03-08T08:30:15;22.70;45.00
27188;DHT22;14708;50.872;5.306;2024-03-08T08:32:42;22.70;45.20
27188;DHT22;14708;50.872;5.306;2024-03-08T08:35:08;22.70;45.50
27188;DHT22;14708;50.872;5.306;2024-03-08T08:37:35;22.70;45.20
27188;DHT22;14708;50.872;5.306;2024-03-08T08:40:04;22.60;45.20
27188;DHT22;14708;50.872;5.306;2024-03-08T08:42:36;22.60;45.70
27188;DHT22;14708;50.872;5.306;2024-03-08T08:45:05;22.70;45.70
27188;DHT22;14708;50.872;5.306;2024-03-08T08:47:34;22.70;45.50
27188;DHT22;14708;50.872;5.306;2024-03-08T08:50:00;22.70;46.10
27188;DHT22;14708;50.872;5.306;2024-03-08T08:52:27;22.80;45.30
27188;DHT22;14708;50.872;5.306;2024-03-08T08:54:54;22.80;45.40
27188;DHT22;14708;50.872;5.306;2024-03-08T08:57:20;22.90;45.50
27188;DHT22;14708;50.872;5.306;2024-03-08T08:59:46;22.90;45.30
27188;DHT22;14708;50.872;5.306;2024-03-08T09:02:13;22.90;44.80
27188;DHT22;14708;50.872;5.306;2024-03-08T09:04:43;22.90;45.00
27188;DHT22;14708;50.872;5.306;2024-03-08T09:07:13;23.00;44.80
27188;DHT22;14708;50.872;5.306;2024-03-08T09:09:39;23.00;44.90
27188;DHT22;14708;50.872;5.306;2024-03-08T09:12:08;22.80;44.80
27188;DHT22;14708;50.872;5.306;2024-03-08T09:14:37;22.60;44.80
27188;DHT22;14708;50.872;5.306;2024-03-08T09:17:05;22.70;45.90
27188;DHT22;14708;50.872;5.306;2024-03-08T09:19:34;22.80;45.80
27188;DHT22;14708;50.872;5.306;2024-03-08T09:22:00;23.00;46.00
27188;DHT22;14708;50.872;5.306;2024-03-08T09:24:25;23.00;45.90
27188;DHT22;14708;50.872;5.306;2024-03-08T09:26:53;23.10;45.40
27188;DHT22;14708;50.872;5.306;2024-03-08T09:29:20;23.10;48.20
27188;DHT22;14708;50.872;5.306;2024-03-08T09:31:46;23.10;50.20
27188;DHT22;14708;50.872;5.306;2024-03-08T09:34:13;23.00;48.90
27188;DHT22;14708;50.872;5.306;2024-03-08T09:36:40;23.10;48.70
27188;DHT22;14708;50.872;5.306;2024-03-08T09:39:07;23.10;48.80
27188;DHT22;14708;50.872;5.306;2024-03-08T09:41:33;23.10;48.80
27188;DHT22;14708;50.872;5.306;2024-03-08T09:44:00;23.10;48.90
27188;DHT22;14708;50.872;5.306;2024-03-08T09:46:26;23.10;48.60
27188;DHT22;14708;50.872;5.306;2024-03-08T09:48:54;23.00;48.20
27188;DHT22;14708;50.872;5.306;2024-03-08T09:51:27;22.80;46.60
27188;DHT22;14708;50.872;5.306;2024-03-08T09:53:53;22.70;48.10
27188;DHT22;14708;50.872;5.306;2024-03-08T09:56:21;22.60;47.20
27188;DHT22;14708;50.872;5.306;2024-03-08T09:58:47;22.60;45.90
27188;DHT22;14708;50.872;5.306;2024-03-08T10:01:31;22.60;44.30
27188;DHT22;14708;50.872;5.306;2024-03-08T10:03:57;22.40;46.20
27188;DHT22;14708;50.872;5.306;2024-03-08T10:06:24;22.20;46.10
27188;DHT22;14708;50.872;5.306;2024-03-08T10:08:51;22.10;45.70
27188;DHT22;14708;50.872;5.306;2024-03-08T10:11:18;22.00;46.00
27188;DHT22;14708;50.872;5.306;2024-03-08T10:13:45;21.90;46.60
27188;DHT22;14708;50.872;5.306;2024-03-08T10:16:12;21.90;46.60
27188;DHT22;14708;50.872;5.306;2024-03-08T10:18:38;21.90;47.00
27188;DHT22;14708;50.872;5.306;2024-03-08T10:21:08;21.80;47.30
27188;DHT22;14708;50.872;5.306;2024-03-08T10:23:36;21.70;47.30
27188;DHT22;14708;50.872;5.306;2024-03-08T10:26:17;21.70;47.70
27188;DHT22;14708;50.872;5.306;2024-03-08T10:28:47;21.60;47.70
27188;DHT22;14708;50.872;5.306;2024-03-08T10:31:17;21.60;47.70
27188;DHT22;14708;50.872;5.306;2024-03-08T10:33:43;21.70;46.80
27188;DHT22;14708;50.872;5.306;2024-03-08T10:36:11;21.80;46.30
27188;DHT22;14708;50.872;5.306;2024-03-08T10:38:39;21.80;45.80
27188;DHT22;14708;50.872;5.306;2024-03-08T10:41:12;21.90;44.60
27188;DHT22;14708;50.872;5.306;2024-03-08T10:43:52;22.10;46.80
27188;DHT22;14708;50.872;5.306;2024-03-08T10:46:34;22.20;46.80
27188;DHT22;14708;50.872;5.306;2024-03-08T10:49:10;22.20;46.50
27188;DHT22;14708;50.872;5.306;2024-03-08T10:51:37;22.30;46.40
27188;DHT22;14708;50.872;5.306;2024-03-08T10:54:04;22.30;46.30
27188;DHT22;14708;50.872;5.306;2024-03-08T10:56:33;22.30;46.10
27188;DHT22;14708;50.872;5.306;2024-03-08T10:58:59;22.40;45.90
27188;DHT22;14708;50.872;5.306;2024-03-08T11:01:25;22.40;45.80
27188;DHT22;14708;50.872;5.306;2024-03-08T11:03:51;22.40;45.70
27188;DHT22;14708;50.872;5.306;2024-03-08T11:07:04;22.40;45.60
27188;DHT22;14708;50.872;5.306;2024-03-08T11:09:36;22.50;45.60
27188;DHT22;14708;50.872;5.306;2024-03-08T11:12:21;22.50;45.40
27188;DHT22;14708;50.872;5.306;2024-03-08T11:14:51;22.60;45.60
27188;DHT22;14708;50.872;5.306;2024-03-08T11:19:56;22.60;46.20
27188;DHT22;14708;50.872;5.306;2024-03-08T11:22:26;22.50;46.20
27188;DHT22;14708;50.872;5.306;2024-03-08T11:24:53;22.40;48.00
27188;DHT22;14708;50.872;5.306;2024-03-08T11:27:19;22.30;49.30
27188;DHT22;14708;50.872;5.306;2024-03-08T11:30:02;22.20;51.90
27188;DHT22;14708;50.872;5.306;2024-03-08T11:32:37;22.50;49.90
27188;DHT22;14708;50.872;5.306;2024-03-08T11:35:08;22.70;47.90
27188;DHT22;14708;50.872;5.306;2024-03-08T11:37:44;22.90;46.70
27188;DHT22;14708;50.872;5.306;2024-03-08T11:40:14;23.10;45.50
27188;DHT22;14708;50.872;5.306;2024-03-08T11:42:48;23.10;44.60
27188;DHT22;14708;50.872;5.306;2024-03-08T11:45:15;23.10;43.50
27188;DHT22;14708;50.872;5.306;2024-03-08T11:47:45;23.20;42.70
27188;DHT22;14708;50.872;5.306;2024-03-08T11:50:12;23.20;41.60
27188;DHT22;14708;50.872;5.306;2024-03-08T11:52:39;23.20;41.10
27188;DHT22;14708;50.872;5.306;2024-03-08T11:55:07;23.20;40.50
27188;DHT22;14708;50.872;5.306;2024-03-08T11:57:33;23.20;40.10
27188;DHT22;14708;50.872;5.306;2024-03-08T11:59:59;23.30;39.50
27188;DHT22;14708;50.872;5.306;2024-03-08T12:02:34;23.30;38.20
27188;DHT22;14708;50.872;5.306;2024-03-08T12:05:04;23.40;37.90
27188;DHT22;14708;50.872;5.306;2024-03-08T12:07:31;23.40;38.00
27188;DHT22;14708;50.872;5.306;2024-03-08T12:10:20;23.40;37.20
27188;DHT22;14708;50.872;5.306;2024-03-08T12:12:52;23.40;36.60
27188;DHT22;14708;50.872;5.306;2024-03-08T12:15:20;23.40;35.70
27188;DHT22;14708;50.872;5.306;2024-03-08T12:17:48;23.40;35.20
27188;DHT22;14708;50.872;5.306;2024-03-08T12:20:23;23.40;35.30
27188;DHT22;14708;50.872;5.306;2024-03-08T12:22:55;23.40;34.70
27188;DHT22;14708;50.872;5.306;2024-03-08T12:25:29;23.40;34.70
27188;DHT22;14708;50.872;5.306;2024-03-08T12:27:55;23.40;34.40
27188;DHT22;14708;50.872;5.306;2024-03-08T12:30:23;23.40;34.40
27188;DHT22;14708;50.872;5.306;2024-03-08T12:32:55;23.40;34.40
27188;DHT22;14708;50.872;5.306;2024-03-08T12:35:27;23.40;34.10
27188;DHT22;14708;50.872;5.306;2024-03-08T12:37:59;23.40;34.60
27188;DHT22;14708;50.872;5.306;2024-03-08T12:40:30;23.30;36.20
27188;DHT22;14708;50.872;5.306;2024-03-08T12:42:57;23.30;36.70
27188;DHT22;14708;50.872;5.306;2024-03-08T12:45:24;23.20;38.30
27188;DHT22;14708;50.872;5.306;2024-03-08T12:47:59;23.00;38.70
27188;DHT22;14708;50.872;5.306;2024-03-08T12:50:25;23.10;37.80
27188;DHT22;14708;50.872;5.306;2024-03-08T12:52:51;23.10;37.70
27188;DHT22;14708;50.872;5.306;2024-03-08T12:55:21;23.30;38.00
27188;DHT22;14708;50.872;5.306;2024-03-08T12:57:48;23.30;38.30
27188;DHT22;14708;50.872;5.306;2024-03-08T13:00:15;23.40;38.30
27188;DHT22;14708;50.872;5.306;2024-03-08T13:02:48;23.40;38.20
27188;DHT22;14708;50.872;5.306;2024-03-08T13:05:17;23.40;38.50
27188;DHT22;14708;50.872;5.306;2024-03-08T13:07:43;23.30;38.80
27188;DHT22;14708;50.872;5.306;2024-03-08T13:10:15;23.10;39.30
27188;DHT22;14708;50.872;5.306;2024-03-08T13:12:45;23.00;39.50
27188;DHT22;14708;50.872;5.306;2024-03-08T13:15:11;23.00;40.00
27188;DHT22;14708;50.872;5.306;2024-03-08T13:17:41;22.90;40.30
27188;DHT22;14708;50.872;5.306;2024-03-08T13:20:08;22.80;40.40
27188;DHT22;14708;50.872;5.306;2024-03-08T13:22:35;23.00;40.30
27188;DHT22;14708;50.872;5.306;2024-03-08T13:25:02;23.20;40.00
27188;DHT22;14708;50.872;5.306;2024-03-08T13:27:28;23.20;39.80
27188;DHT22;14708;50.872;5.306;2024-03-08T13:29:54;23.20;39.80
27188;DHT22;14708;50.872;5.306;2024-03-08T13:32:20;23.20;39.70
27188;DHT22;14708;50.872;5.306;2024-03-08T13:34:49;23.30;39.60
27188;DHT22;14708;50.872;5.306;2024-03-08T13:37:17;23.40;39.50
27188;DHT22;14708;50.872;5.306;2024-03-08T13:39:43;23.40;39.40
27188;DHT22;14708;50.872;5.306;2024-03-08T13:42:12;23.40;39.60
27188;DHT22;14708;50.872;5.306;2024-03-08T13:44:47;23.30;39.70
27188;DHT22;14708;50.872;5.306;2024-03-08T13:47:17;23.40;40.10
27188;DHT22;14708;50.872;5.306;2024-03-08T13:49:43;23.50;39.80
27188;DHT22;14708;50.872;5.306;2024-03-08T13:52:10;23.50;38.70
27188;DHT22;14708;50.872;5.306;2024-03-08T13:54:38;23.50;37.50
27188;DHT22;14708;50.872;5.306;2024-03-08T13:57:05;23.60;37.60
27188;DHT22;14708;50.872;5.306;2024-03-08T13:59:33;23.60;37.80
27188;DHT22;14708;50.872;5.306;2024-03-08T14:02:01;23.60;37.00
27188;DHT22;14708;50.872;5.306;2024-03-08T14:04:30;23.60;37.50
27188;DHT22;14708;50.872;5.306;2024-03-08T14:06:56;23.60;36.70
27188;DHT22;14708;50.872;5.306;2024-03-08T14:09:29;23.60;36.60
27188;DHT22;14708;50.872;5.306;2024-03-08T14:11:56;23.60;36.20
27188;DHT22;14708;50.872;5.306;2024-03-08T14:14:22;23.70;35.90
27188;DHT22;14708;50.872;5.306;2024-03-08T14:16:49;23.70;36.30
27188;DHT22;14708;50.872;5.306;2024-03-08T14:19:18;23.60;35.60
27188;DHT22;14708;50.872;5.306;2024-03-08T14:21:44;23.70;36.10
27188;DHT22;14708;50.872;5.306;2024-03-08T14:24:10;23.70;35.30
27188;DHT22;14708;50.872;5.306;2024-03-08T14:26:36;23.70;35.50
27188;DHT22;14708;50.872;5.306;2024-03-08T14:29:04;23.70;34.80
27188;DHT22;14708;50.872;5.306;2024-03-08T14:31:31;23.70;34.60
27188;DHT22;14708;50.872;5.306;2024-03-08T14:33:57;23.70;34.60
27188;DHT22;14708;50.872;5.306;2024-03-08T14:36:24;23.70;34.10
27188;DHT22;14708;50.872;5.306;2024-03-08T14:38:51;23.70;34.30
27188;DHT22;14708;50.872;5.306;2024-03-08T14:41:18;23.70;34.50
27188;DHT22;14708;50.872;5.306;2024-03-08T14:43:44;23.70;34.80
27188;DHT22;14708;50.872;5.306;2024-03-08T14:46:13;23.70;34.50
27188;DHT22;14708;50.872;5.306;2024-03-08T14:48:49;23.70;33.80
27188;DHT22;14708;50.872;5.306;2024-03-08T14:51:17;23.70;34.10
27188;DHT22;14708;50.872;5.306;2024-03-08T14:53:45;23.70;33.30
27188;DHT22;14708;50.872;5.306;2024-03-08T14:56:11;23.70;33.10
27188;DHT22;14708;50.872;5.306;2024-03-08T14:58:42;23.70;33.30
27188;DHT22;14708;50.872;5.306;2024-03-08T15:01:10;23.70;33.60
27188;DHT22;14708;50.872;5.306;2024-03-08T15:03:36;23.80;33.40
27188;DHT22;14708;50.872;5.306;2024-03-08T15:06:05;23.70;33.40
27188;DHT22;14708;50.872;5.306;2024-03-08T15:08:35;23.70;32.80
27188;DHT22;14708;50.872;5.306;2024-03-08T15:11:01;23.70;33.60
27188;DHT22;14708;50.872;5.306;2024-03-08T15:13:27;23.80;33.00
27188;DHT22;14708;50.872;5.306;2024-03-08T15:15:59;23.80;33.10
27188;DHT22;14708;50.872;5.306;2024-03-08T15:18:26;23.80;33.00
27188;DHT22;14708;50.872;5.306;2024-03-08T15:20:56;23.80;32.70
27188;DHT22;14708;50.872;5.306;2024-03-08T15:23:21;23.80;32.60
27188;DHT22;14708;50.872;5.306;2024-03-08T15:25:50;23.80;34.80
27188;DHT22;14708;50.872;5.306;2024-03-08T15:28:16;23.90;33.70
27188;DHT22;14708;50.872;5.306;2024-03-08T15:30:48;23.90;34.00
27188;DHT22;14708;50.872;5.306;2024-03-08T15:33:20;23.90;34.70
27188;DHT22;14708;50.872;5.306;2024-03-08T15:35:51;24.00;35.50
27188;DHT22;14708;50.872;5.306;2024-03-08T15:38:24;24.00;35.90
27188;DHT22;14708;50.872;5.306;2024-03-08T15:40:50;24.00;36.20
27188;DHT22;14708;50.872;5.306;2024-03-08T15:43:17;24.00;36.80
27188;DHT22;14708;50.872;5.306;2024-03-08T15:45:45;24.00;37.20